Time;durP1;ratioP1;P1;durP2;ratioP2;P2;SDS_P1;SDS_P2;PMS_P1;PMS_P2;Temp;Humidity;BMP_temperature;BMP_pressure;BME280_temperature;BME280_humidity;BME280_pressure;Samples;Min_cycle;Max_cycle;Signal;HPM_P1;HPM_P2
2023/09/28 00:00:45;;;;;;;;;;;;;;;;;;6301066;28;19905;-84
2023/09/28 00:03:22;;;;;;;;;;;;;;;;;;6292812;28;19999;-84
2023/09/28 00:06:22;;;;;;;;;;;;;;;;;;6300895;28;19908;-84
2023/09/28 00:09:22;;;;;;;;;;;;;;;;;;6300951;28;19904;-84
2023/09/28 00:12:22;;;;;;;;;;;;;;;;;;6300721;28;19991;-84
2023/09/28 00:15:23;;;;;;;;;;;;;;;;;;6300515;28;19944;-84
2023/09/28 00:18:24;;;;;;;;;;;;;;;;;;6282416;28;20393;-84
2023/09/28 00:21:24;;;;;;;;;;;;;;;;;;6301131;28;19940;-84
2023/09/28 00:24:24;;;;;;;;;;;;;;;;;;6300916;28;19940;-85
2023/09/28 00:27:25;;;;;;;;;;;;;;;;;;6282369;28;19974;-84
2023/09/28 00:30:26;;;;;;;;;;;;;;;;;;6282305;28;19946;-84
2023/09/28 00:33:26;;;;;;;;;;;;;;;;;;6282647;28;20232;-84
2023/09/28 00:36:26;;;;;;;;;;;;;;;;;;6282719;28;20034;-84
2023/09/28 00:39:26;;;;;;;;;;;;;;;;;;6300740;28;19912;-83
2023/09/28 00:42:28;;;;;;;;;;;;;;;;;;6282178;28;20345;-84
2023/09/28 00:45:28;;;;;;;;;;;;;;;;;;6299935;28;20320;-85
2023/09/28 00:48:28;;;;;;;;;;;;;;;;;;6299834;28;19904;-83
2023/09/28 00:51:30;;;;;;;;;;;;;;;;;;6300453;28;19904;-83
2023/09/28 00:54:31;;;;;;;;;;;;;;;;;;6281816;28;19904;-83
2023/09/28 00:57:33;;;;;;;;;;;;;;;;;;6299614;28;19954;-83
2023/09/28 01:00:34;;;;;;;;;;;;;;;;;;6299887;28;19913;-84
2023/09/28 01:03:35;;;;;;;;;;;;;;;;;;6300243;28;19958;-88
2023/09/28 01:06:37;;;;;;;;;;;;;;;;;;6281488;28;19904;-89
2023/09/28 01:09:38;;;;;;;;;;;;;;;;;;6281688;28;19905;-89
2023/09/28 01:12:39;;;;;;;;;;;;;;;;;;6281256;28;19928;-88
2023/09/28 01:15:39;;;;;;;;;;;;;;;;;;6299177;28;20298;-89
2023/09/28 01:18:40;;;;;;;;;;;;;;;;;;6281557;28;19912;-89
2023/09/28 01:21:40;;;;;;;;;;;;;;;;;;6298422;28;19999;-89
2023/09/28 01:24:40;;;;;;;;;;;;;;;;;;6299966;28;19904;-88
2023/09/28 01:27:40;;;;;;;;;;;;;;;;;;6299168;28;19912;-88
2023/09/28 01:30:40;;;;;;;;;;;;;;;;;;6298825;28;19926;-88
2023/09/28 01:33:42;;;;;;;;;;;;;;;;;;6299320;28;19961;-87
2023/09/28 01:36:42;;;;;;;;;;;;;;;;;;6298970;28;19904;-89
2023/09/28 01:39:42;;;;;;;;;;;;;;;;;;6298633;28;19912;-89
2023/09/28 01:42:43;;;;;;;;;;;;;;;;;;6298602;28;20320;-89
2023/09/28 01:45:43;;;;;;;;;;;;;;;;;;6280718;28;19958;-89
2023/09/28 01:48:44;;;;;;;;;;;;;;;;;;6280543;28;19908;-89
2023/09/28 01:51:44;;;;;;;;;;;;;;;;;;6280440;28;19910;-88
2023/09/28 01:54:44;;;;;;;;;;;;;;;;;;6280349;28;19904;-89
2023/09/28 01:57:44;;;;;;;;;;;;;;;;;;6280250;28;19908;-89
2023/09/28 02:00:46;;;;;;;;;;;;;;;;;;6280579;28;19955;-89
2023/09/28 02:03:46;;;;;;;;;;;;;;;;;;6298137;28;20416;-87
2023/09/28 02:06:46;;;;;;;;;;;;;;;;;;6280448;28;19908;-88
2023/09/28 02:09:46;;;;;;;;;;;;;;;;;;6297920;28;19904;-88
2023/09/28 02:12:47;;;;;;;;;;;;;;;;;;6298337;28;19922;-88
2023/09/28 02:15:47;;;;;;;;;;;;;;;;;;6298570;28;19910;-88
2023/09/28 02:18:47;;;;;;;;;;;;;;;;;;6298072;28;20392;-84
2023/09/28 02:21:47;;;;;;;;;;;;;;;;;;6297824;28;19957;-84
2023/09/28 02:24:50;;;;;;;;;;;;;;;;;;6298137;28;20320;-84
2023/09/28 02:27:50;;;;;;;;;;;;;;;;;;6297622;28;19911;-84
2023/09/28 02:30:50;;;;;;;;;;;;;;;;;;6297725;28;19905;-84
2023/09/28 02:33:51;;;;;;;;;;;;;;;;;;6279706;28;19927;-84
2023/09/28 02:36:51;;;;;;;;;;;;;;;;;;6297444;28;19915;-84
2023/09/28 02:39:51;;;;;;;;;;;;;;;;;;6298058;28;19909;-83
2023/09/28 02:42:52;;;;;;;;;;;;;;;;;;6297865;28;19927;-84
2023/09/28 02:45:53;;;;;;;;;;;;;;;;;;6297418;28;19980;-84
2023/09/28 02:48:53;;;;;;;;;;;;;;;;;;6298149;28;19919;-84
2023/09/28 02:51:53;;;;;;;;;;;;;;;;;;6279256;28;19904;-84
2023/09/28 02:54:54;;;;;;;;;;;;;;;;;;6298089;28;19912;-84
2023/09/28 02:57:54;;;;;;;;;;;;;;;;;;6297251;28;19951;-83
2023/09/28 03:00:56;;;;;;;;;;;;;;;;;;6297739;28;19951;-84
2023/09/28 03:04:00;;;;;;;;;;;;;;;;;;6297806;28;19916;-84
2023/09/28 03:07:00;;;;;;;;;;;;;;;;;;6279254;28;19947;-85
2023/09/28 03:10:00;;;;;;;;;;;;;;;;;;6279411;28;19926;-84
2023/09/28 03:13:00;;;;;;;;;;;;;;;;;;6297145;28;19912;-84
2023/09/28 03:16:01;;;;;;;;;;;;;;;;;;6297230;28;19904;-85
2023/09/28 03:19:01;;;;;;;;;;;;;;;;;;6279095;28;19936;-84
2023/09/28 03:22:01;;;;;;;;;;;;;;;;;;6297438;28;19905;-85
2023/09/28 03:25:01;;;;;;;;;;;;;;;;;;6297233;28;19940;-85
2023/09/28 03:28:05;;;;;;;;;;;;;;;;;;6297822;28;20421;-83
2023/09/28 03:31:05;;;;;;;;;;;;;;;;;;6279140;28;19910;-84
2023/09/28 03:34:05;;;;;;;;;;;;;;;;;;6297552;28;19912;-83
2023/09/28 03:37:06;;;;;;;;;;;;;;;;;;6279153;28;20010;-84
2023/09/28 03:40:12;;;;;;;;;;;;;;;;;;6297790;28;19955;-84
2023/09/28 03:43:12;;;;;;;;;;;;;;;;;;6297586;28;19946;-84
2023/09/28 03:46:12;;;;;;;;;;;;;;;;;;6283811;28;20314;-84
2023/09/28 03:49:12;;;;;;;;;;;;;;;;;;6284019;28;20326;-84
2023/09/28 03:52:12;;;;;;;;;;;;;;;;;;6283964;28;19904;-84
2023/09/28 03:55:13;;;;;;;;;;;;;;;;;;6301553;28;19911;-84
2023/09/28 03:58:13;;;;;;;;;;;;;;;;;;6284257;28;20458;-84
2023/09/28 04:01:14;;;;;;;;;;;;;;;;;;6283404;28;19955;-84
2023/09/28 04:04:15;;;;;;;;;;;;;;;;;;6283469;28;20244;-84
2023/09/28 04:07:15;;;;;;;;;;;;;;;;;;6301962;28;19905;-84
2023/09/28 04:10:19;;;;;;;;;;;;;;;;;;6300898;28;19912;-83
2023/09/28 04:13:19;;;;;;;;;;;;;;;;;;6283096;28;19912;-84
2023/09/28 04:16:19;;;;;;;;;;;;;;;;;;6283190;28;19904;-84
2023/09/28 04:19:20;;;;;;;;;;;;;;;;;;6301795;28;19912;-84
2023/09/28 04:22:21;;;;;;;;;;;;;;;;;;6299773;28;19936;-84
2023/09/28 04:25:21;;;;;;;;;;;;;;;;;;6282994;28;19904;-85
2023/09/28 04:28:21;;;;;;;;;;;;;;;;;;6300863;28;19908;-84
2023/09/28 04:31:21;;;;;;;;;;;;;;;;;;6300883;28;19912;-84
2023/09/28 04:34:21;;;;;;;;;;;;;;;;;;6283159;28;19927;-84
2023/09/28 04:37:26;;;;;;;;;;;;;;;;;;6302569;28;20263;-88
2023/09/28 04:40:27;;;;;;;;;;;;;;;;;;6303591;28;19908;-88
2023/09/28 04:43:27;;;;;;;;;;;;;;;;;;6303045;28;20328;-87
2023/09/28 04:46:27;;;;;;;;;;;;;;;;;;6303432;28;19908;-87
2023/09/28 04:49:28;;;;;;;;;;;;;;;;;;6303061;28;19904;-88
2023/09/28 04:52:28;;;;;;;;;;;;;;;;;;6284363;28;19904;-88
2023/09/28 04:55:29;;;;;;;;;;;;;;;;;;6283489;28;19982;-88
2023/09/28 04:58:29;;;;;;;;;;;;;;;;;;6303862;28;19915;-88
2023/09/28 05:01:31;;;;;;;;;;;;;;;;;;6302044;28;19908;-88
2023/09/28 05:04:31;;;;;;;;;;;;;;;;;;6300893;28;20317;-87
2023/09/28 05:07:31;;;;;;;;;;;;;;;;;;6281989;28;19911;-87
2023/09/28 05:10:31;;;;;;;;;;;;;;;;;;6282688;28;20003;-86
2023/09/28 05:13:31;;;;;;;;;;;;;;;;;;6299601;28;19999;-87
2023/09/28 05:16:31;;;;;;;;;;;;;;;;;;6299538;28;20283;-87
2023/09/28 05:19:32;;;;;;;;;;;;;;;;;;6281831;28;20002;-87
2023/09/28 05:22:32;;;;;;;;;;;;;;;;;;6281793;28;20384;-88
2023/09/28 05:25:33;;;;;;;;;;;;;;;;;;6281586;28;19930;-88
2023/09/28 05:28:34;;;;;;;;;;;;;;;;;;6281352;28;19959;-87
2023/09/28 05:31:34;;;;;;;;;;;;;;;;;;6281350;28;19909;-87
2023/09/28 05:34:36;;;;;;;;;;;;;;;;;;6299753;28;19909;-88
2023/09/28 05:37:36;;;;;;;;;;;;;;;;;;6280901;28;19962;-87
2023/09/28 05:40:36;;;;;;;;;;;;;;;;;;6298917;28;19938;-87
2023/09/28 05:43:36;;;;;;;;;;;;;;;;;;6280768;28;19908;-87
2023/09/28 05:46:36;;;;;;;;;;;;;;;;;;6299111;28;19908;-82
2023/09/28 05:49:37;;;;;;;;;;;;;;;;;;6298705;28;20354;-83
2023/09/28 05:52:37;;;;;;;;;;;;;;;;;;6298878;28;19904;-83
2023/09/28 05:55:37;;;;;;;;;;;;;;;;;;6298474;28;19951;-84
2023/09/28 05:58:37;;;;;;;;;;;;;;;;;;6299009;28;19908;-84
2023/09/28 06:01:37;;;;;;;;;;;;;;;;;;6281219;28;19910;-84
2023/09/28 06:04:38;;;;;;;;;;;;;;;;;;6280301;28;19940;-84
2023/09/28 06:07:38;;;;;;;;;;;;;;;;;;6297963;28;19904;-83
2023/09/28 06:10:38;;;;;;;;;;;;;;;;;;6298243;28;20382;-84
2023/09/28 06:13:39;;;;;;;;;;;;;;;;;;6255703;28;20353;-83
2023/09/28 06:16:40;;;;;;;;;;;;;;;;;;6255525;28;19911;-83
2023/09/28 06:19:42;;;;;;;;;;;;;;;;;;6255289;28;19959;-84
2023/09/28 06:22:42;;;;;;;;;;;;;;;;;;6273152;28;19912;-84
2023/09/28 06:25:44;;;;;;;;;;;;;;;;;;6255169;28;19905;-84
2023/09/28 06:28:44;;;;;;;;;;;;;;;;;;6272978;28;19920;-84
2023/09/28 06:31:44;;;;;;;;;;;;;;;;;;6273117;28;19944;-83
2023/09/28 06:34:44;;;;;;;;;;;;;;;;;;6273061;28;19911;-83
2023/09/28 06:37:44;;;;;;;;;;;;;;;;;;6272829;28;19915;-83
2023/09/28 06:40:48;;;;;;;;;;;;;;;;;;6254941;28;19912;-83
2023/09/28 06:43:48;;;;;;;;;;;;;;;;;;6255025;28;19916;-83
2023/09/28 06:46:49;;;;;;;;;;;;;;;;;;6273122;28;19905;-82
2023/09/28 06:49:49;;;;;;;;;;;;;;;;;;6273070;28;20395;-83
2023/09/28 06:52:51;;;;;;;;;;;;;;;;;;6273443;28;19928;-83
2023/09/28 06:55:59;;;;;;;;;;;;;;;;;;6273094;28;19905;-83
2023/09/28 06:58:59;;;;;;;;;;;;;;;;;;6273110;28;19909;-83
2023/09/28 07:01:59;;;;;;;;;;;;;;;;;;6272642;28;19920;-83
2023/09/28 07:04:59;;;;;;;;;;;;;;;;;;6272958;28;19905;-83
2023/09/28 07:08:00;;;;;;;;;;;;;;;;;;6272843;28;19909;-83
2023/09/28 07:11:01;;;;;;;;;;;;;;;;;;6257150;28;19943;-83
2023/09/28 07:14:01;;;;;;;;;;;;;;;;;;6279349;28;19904;-83
2023/09/28 07:17:01;;;;;;;;;;;;;;;;;;6297728;28;20349;-84
2023/09/28 07:20:01;;;;;;;;;;;;;;;;;;6300251;28;19905;-83
2023/09/28 07:23:01;;;;;;;;;;;;;;;;;;6302052;28;19905;-84
2023/09/28 07:26:01;;;;;;;;;;;;;;;;;;6284103;28;19904;-83
2023/09/28 07:29:02;;;;;;;;;;;;;;;;;;6301903;28;19912;-83
2023/09/28 07:32:02;;;;;;;;;;;;;;;;;;6283978;28;19904;-84
2023/09/28 07:35:02;;;;;;;;;;;;;;;;;;6283682;28;20354;-83
2023/09/28 07:38:02;;;;;;;;;;;;;;;;;;6301687;28;19908;-83
2023/09/28 07:41:03;;;;;;;;;;;;;;;;;;6301911;28;19938;-83
2023/09/28 07:44:03;;;;;;;;;;;;;;;;;;6301431;28;19955;-84
2023/09/28 07:47:03;;;;;;;;;;;;;;;;;;6301395;28;19904;-83
2023/09/28 07:50:06;;;;;;;;;;;;;;;;;;6283645;28;20023;-83
2023/09/28 07:53:07;;;;;;;;;;;;;;;;;;6283160;28;20000;-82
2023/09/28 07:56:07;;;;;;;;;;;;;;;;;;6283411;28;20313;-81
2023/09/28 07:59:07;;;;;;;;;;;;;;;;;;6283181;28;20373;-82
2023/09/28 08:02:11;;;;;;;;;;;;;;;;;;6301665;28;19911;-83
2023/09/28 08:05:12;;;;;;;;;;;;;;;;;;6301408;28;19904;-83
2023/09/28 08:08:12;;;;;;;;;;;;;;;;;;6301318;28;20379;-82
2023/09/28 08:11:12;;;;;;;;;;;;;;;;;;6282990;28;20412;-82
2023/09/28 08:14:15;;;;;;;;;;;;;;;;;;6300893;28;20360;-83
2023/09/28 08:17:15;;;;;;;;;;;;;;;;;;6300991;28;19995;-82
2023/09/28 08:20:16;;;;;;;;;;;;;;;;;;6282738;28;19904;-83
2023/09/28 08:23:16;;;;;;;;;;;;;;;;;;6301994;28;19912;-80
2023/09/28 08:26:17;;;;;;;;;;;;;;;;;;6301042;28;19917;-81
2023/09/28 08:29:18;;;;;;;;;;;;;;;;;;6300205;28;19908;-81
2023/09/28 08:32:18;;;;;;;;;;;;;;;;;;6300520;28;19904;-81
2023/09/28 08:35:18;;;;;;;;;;;;;;;;;;6300440;28;20325;-81
2023/09/28 08:38:20;;;;;;;;;;;;;;;;;;6300909;28;19916;-81
2023/09/28 08:41:20;;;;;;;;;;;;;;;;;;6282361;28;19919;-81
2023/09/28 08:44:20;;;;;;;;;;;;;;;;;;6282319;28;19904;-81
2023/09/28 08:47:21;;;;;;;;;;;;;;;;;;6300576;28;19904;-82
2023/09/28 08:50:22;;;;;;;;;;;;;;;;;;6299824;28;19904;-81
2023/09/28 08:53:22;;;;;;;;;;;;;;;;;;6300802;28;19912;-82
2023/09/28 08:56:22;;;;;;;;;;;;;;;;;;6300457;28;19905;-82
2023/09/28 08:59:28;;;;;;;;;;;;;;;;;;6300218;28;20411;-81
2023/09/28 09:02:28;;;;;;;;;;;;;;;;;;6300284;28;19959;-82
2023/09/28 09:05:30;;;;;;;;;;;;;;;;;;6299773;28;20317;-81
2023/09/28 09:08:30;;;;;;;;;;;;;;;;;;6299954;28;19904;-81
2023/09/28 09:11:33;;;;;;;;;;;;;;;;;;6299473;28;19960;-82
2023/09/28 09:14:33;;;;;;;;;;;;;;;;;;6299820;28;19908;-81
2023/09/28 09:17:34;;;;;;;;;;;;;;;;;;6281658;28;19913;-88
2023/09/28 09:20:34;;;;;;;;;;;;;;;;;;6281554;28;20011;-87
2023/09/28 09:23:36;;;;;;;;;;;;;;;;;;6300075;28;19904;-87
2023/09/28 09:26:36;;;;;;;;;;;;;;;;;;6281354;28;19983;-87
2023/09/28 09:29:36;;;;;;;;;;;;;;;;;;6299261;28;19905;-87
2023/09/28 09:32:38;;;;;;;;;;;;;;;;;;6299457;28;19904;-87
2023/09/28 09:35:39;;;;;;;;;;;;;;;;;;6299368;28;19913;-88
2023/09/28 09:38:39;;;;;;;;;;;;;;;;;;6299248;28;19908;-88
2023/09/28 09:41:39;;;;;;;;;;;;;;;;;;6280115;28;19939;-88
2023/09/28 09:44:40;;;;;;;;;;;;;;;;;;6299329;28;19958;-88
2023/09/28 09:47:40;;;;;;;;;;;;;;;;;;6281257;28;20397;-88
2023/09/28 09:50:40;;;;;;;;;;;;;;;;;;6298617;28;19904;-88
2023/09/28 09:53:40;;;;;;;;;;;;;;;;;;6298536;28;19928;-89
2023/09/28 09:56:41;;;;;;;;;;;;;;;;;;6280433;28;19904;-88
2023/09/28 09:59:41;;;;;;;;;;;;;;;;;;6280355;28;19915;-89
2023/09/28 10:02:41;;;;;;;;;;;;;;;;;;6280724;28;20290;-89
2023/09/28 10:05:41;;;;;;;;;;;;;;;;;;6298336;28;19909;-89
2023/09/28 10:08:42;;;;;;;;;;;;;;;;;;6280078;28;19911;-89
2023/09/28 10:11:43;;;;;;;;;;;;;;;;;;6298653;28;19982;-89
2023/09/28 10:14:44;;;;;;;;;;;;;;;;;;6297881;28;19954;-88
2023/09/28 10:17:44;;;;;;;;;;;;;;;;;;6298829;28;19962;-88
2023/09/28 10:20:44;;;;;;;;;;;;;;;;;;6280117;28;20322;-87
2023/09/28 10:23:47;;;;;;;;;;;;;;;;;;6297903;28;19955;-88
2023/09/28 10:26:47;;;;;;;;;;;;;;;;;;6298262;28;19959;-82
2023/09/28 10:29:47;;;;;;;;;;;;;;;;;;6298682;28;19912;-82
2023/09/28 10:32:47;;;;;;;;;;;;;;;;;;6298100;28;19936;-82
2023/09/28 10:35:47;;;;;;;;;;;;;;;;;;6279785;28;19961;-81
2023/09/28 10:38:47;;;;;;;;;;;;;;;;;;6297754;28;19912;-81
2023/09/28 10:41:49;;;;;;;;;;;;;;;;;;6297703;28;19908;-81
2023/09/28 10:44:49;;;;;;;;;;;;;;;;;;6280120;28;19904;-82
2023/09/28 10:47:49;;;;;;;;;;;;;;;;;;6280037;28;19970;-81
2023/09/28 10:50:50;;;;;;;;;;;;;;;;;;6297279;28;20313;-81
2023/09/28 10:53:50;;;;;;;;;;;;;;;;;;6298862;28;19911;-81
2023/09/28 10:56:50;;;;;;;;;;;;;;;;;;6302695;28;19904;-81
2023/09/28 10:59:52;;;;;;;;;;;;;;;;;;6284624;28;19908;-81
2023/09/28 11:02:52;;;;;;;;;;;;;;;;;;6303014;28;19904;-82
2023/09/28 11:05:52;;;;;;;;;;;;;;;;;;6284544;28;19912;-81
2023/09/28 11:08:52;;;;;;;;;;;;;;;;;;6302768;28;19951;-82
2023/09/28 11:11:53;;;;;;;;;;;;;;;;;;6302528;28;19912;-82
2023/09/28 11:14:55;;;;;;;;;;;;;;;;;;6301976;28;19904;-81
2023/09/28 11:17:56;;;;;;;;;;;;;;;;;;6302465;28;19919;-81
2023/09/28 11:20:56;;;;;;;;;;;;;;;;;;6284232;28;19904;-81
2023/09/28 11:23:56;;;;;;;;;;;;;;;;;;6302108;28;19958;-82
2023/09/28 11:26:56;;;;;;;;;;;;;;;;;;6302311;28;19947;-81
2023/09/28 11:29:56;;;;;;;;;;;;;;;;;;6301927;28;19927;-81
2023/09/28 11:32:57;;;;;;;;;;;;;;;;;;6283918;28;20338;-82
2023/09/28 11:35:57;;;;;;;;;;;;;;;;;;6301860;28;20358;-81
2023/09/28 11:38:57;;;;;;;;;;;;;;;;;;6284027;28;20264;-89
2023/09/28 11:41:57;;;;;;;;;;;;;;;;;;6301885;28;19912;-89
2023/09/28 11:44:58;;;;;;;;;;;;;;;;;;6302040;28;19904;-88
2023/09/28 11:47:58;;;;;;;;;;;;;;;;;;6302171;28;19908;-89
2023/09/28 11:50:58;;;;;;;;;;;;;;;;;;6301484;28;19904;-89
2023/09/28 11:53:59;;;;;;;;;;;;;;;;;;6283828;28;19904;-89
2023/09/28 11:56:59;;;;;;;;;;;;;;;;;;6302090;28;19904;-90
2023/09/28 11:59:59;;;;;;;;;;;;;;;;;;6301564;28;19912;-90
2023/09/28 12:03:00;;;;;;;;;;;;;;;;;;6301575;28;19905;-90
2023/09/28 12:06:00;;;;;;;;;;;;;;;;;;6300665;28;19904;-90
2023/09/28 12:09:01;;;;;;;;;;;;;;;;;;6301173;28;19911;-89
2023/09/28 12:12:01;;;;;;;;;;;;;;;;;;6301177;28;19912;-90
2023/09/28 12:15:06;;;;;;;;;;;;;;;;;;6283126;28;19952;-90
2023/09/28 12:18:06;;;;;;;;;;;;;;;;;;6300738;28;19916;-89
2023/09/28 12:21:06;;;;;;;;;;;;;;;;;;6282896;28;20388;-90
2023/09/28 12:24:09;;;;;;;;;;;;;;;;;;6300631;28;20326;-89
2023/09/28 12:27:09;;;;;;;;;;;;;;;;;;6301271;28;19927;-89
2023/09/28 12:30:12;;;;;;;;;;;;;;;;;;6282483;28;19904;-90
2023/09/28 12:33:12;;;;;;;;;;;;;;;;;;6301050;28;19904;-90
2023/09/28 12:36:13;;;;;;;;;;;;;;;;;;6300604;28;20270;-89
2023/09/28 12:39:21;;;;;;;;;;;;;;;;;;6300702;28;19915;-88
2023/09/28 12:42:21;;;;;;;;;;;;;;;;;;6282449;28;19905;-91
2023/09/28 12:45:21;;;;;;;;;;;;;;;;;;6301050;28;19911;-90
2023/09/28 12:48:21;;;;;;;;;;;;;;;;;;6300639;28;20316;-83
2023/09/28 12:51:22;;;;;;;;;;;;;;;;;;6300532;28;19905;-83
2023/09/28 12:54:23;;;;;;;;;;;;;;;;;;6282221;28;19958;-83
2023/09/28 12:57:23;;;;;;;;;;;;;;;;;;6282094;28;19904;-82
2023/09/28 13:00:25;;;;;;;;;;;;;;;;;;6282235;28;19904;-82
2023/09/28 13:03:25;;;;;;;;;;;;;;;;;;6299866;28;20034;-82
2023/09/28 13:06:25;;;;;;;;;;;;;;;;;;6282237;28;19904;-82
2023/09/28 13:09:29;;;;;;;;;;;;;;;;;;6282573;28;20353;-83
2023/09/28 13:12:29;;;;;;;;;;;;;;;;;;6299389;28;19912;-83
2023/09/28 13:15:30;;;;;;;;;;;;;;;;;;6300079;28;19904;-83
2023/09/28 13:18:31;;;;;;;;;;;;;;;;;;6298798;28;19912;-82
2023/09/28 13:21:32;;;;;;;;;;;;;;;;;;6281551;28;19910;-83
2023/09/28 13:24:32;;;;;;;;;;;;;;;;;;6299644;28;19904;-82
2023/09/28 13:27:34;;;;;;;;;;;;;;;;;;6281099;28;20376;-82
2023/09/28 13:30:38;;;;;;;;;;;;;;;;;;6299851;28;19954;-83
2023/09/28 13:33:39;;;;;;;;;;;;;;;;;;6281094;28;19931;-82
2023/09/28 13:36:40;;;;;;;;;;;;;;;;;;6281265;28;19904;-82
2023/09/28 13:39:40;;;;;;;;;;;;;;;;;;6298968;28;19908;-82
2023/09/28 13:42:40;;;;;;;;;;;;;;;;;;6298631;28;19905;-83
2023/09/28 13:45:42;;;;;;;;;;;;;;;;;;6280566;28;20381;-84
2023/09/28 13:48:42;;;;;;;;;;;;;;;;;;6298349;28;20334;-82
2023/09/28 13:51:43;;;;;;;;;;;;;;;;;;6298866;28;19943;-82
2023/09/28 13:54:43;;;;;;;;;;;;;;;;;;6298560;28;19911;-82
2023/09/28 13:57:44;;;;;;;;;;;;;;;;;;6281026;28;19914;-82
2023/09/28 14:00:45;;;;;;;;;;;;;;;;;;6298896;28;19952;-83
2023/09/28 14:03:45;;;;;;;;;;;;;;;;;;6298631;28;19911;-83
2023/09/28 14:06:46;;;;;;;;;;;;;;;;;;6298250;28;19904;-83
2023/09/28 14:09:46;;;;;;;;;;;;;;;;;;6281179;28;19954;-82
2023/09/28 14:12:48;;;;;;;;;;;;;;;;;;6298125;28;19916;-82
2023/09/28 14:15:48;;;;;;;;;;;;;;;;;;6298195;28;19904;-82
2023/09/28 14:18:48;;;;;;;;;;;;;;;;;;6298668;28;19966;-82
2023/09/28 14:21:49;;;;;;;;;;;;;;;;;;6280157;28;19904;-83
2023/09/28 14:24:49;;;;;;;;;;;;;;;;;;6298777;28;19904;-82
2023/09/28 14:27:49;;;;;;;;;;;;;;;;;;6280037;28;19911;-82
2023/09/28 14:30:50;;;;;;;;;;;;;;;;;;6280332;28;20252;-82
2023/09/28 14:33:50;;;;;;;;;;;;;;;;;;6279961;28;20262;-82
2023/09/28 14:36:51;;;;;;;;;;;;;;;;;;6297650;28;20377;-83
2023/09/28 14:39:52;;;;;;;;;;;;;;;;;;6297856;28;19912;-83
2023/09/28 14:42:52;;;;;;;;;;;;;;;;;;6279530;28;20449;-82
2023/09/28 14:45:53;;;;;;;;;;;;;;;;;;6280651;28;19904;-82
2023/09/28 14:48:54;;;;;;;;;;;;;;;;;;6297669;28;20270;-83
2023/09/28 14:51:55;;;;;;;;;;;;;;;;;;6279562;28;20354;-84
2023/09/28 14:54:55;;;;;;;;;;;;;;;;;;6279934;28;20419;-82
2023/09/28 14:57:55;;;;;;;;;;;;;;;;;;6279353;28;19908;-82
2023/09/28 15:00:55;;;;;;;;;;;;;;;;;;6279494;28;19912;-84
2023/09/28 15:03:56;;;;;;;;;;;;;;;;;;6297304;28;19962;-83
2023/09/28 15:06:56;;;;;;;;;;;;;;;;;;6298043;28;19905;-83
2023/09/28 15:09:56;;;;;;;;;;;;;;;;;;6297098;28;19927;-83
2023/09/28 15:12:56;;;;;;;;;;;;;;;;;;6297125;28;19991;-83
2023/09/28 15:15:57;;;;;;;;;;;;;;;;;;6297737;28;19908;-83
2023/09/28 15:18:59;;;;;;;;;;;;;;;;;;6297815;28;19913;-83
2023/09/28 15:21:59;;;;;;;;;;;;;;;;;;6297469;28;19905;-82
2023/09/28 15:24:59;;;;;;;;;;;;;;;;;;6297003;28;20263;-82
2023/09/28 15:28:00;;;;;;;;;;;;;;;;;;6297315;28;20334;-83
2023/09/28 15:31:00;;;;;;;;;;;;;;;;;;6296934;28;19904;-83
2023/09/28 15:34:00;;;;;;;;;;;;;;;;;;6296648;28;20042;-81
2023/09/28 15:37:00;;;;;;;;;;;;;;;;;;6297605;28;19904;-83
2023/09/28 15:40:03;;;;;;;;;;;;;;;;;;6297900;28;19963;-83
2023/09/28 15:43:03;;;;;;;;;;;;;;;;;;6301457;28;19904;-83
2023/09/28 15:46:06;;;;;;;;;;;;;;;;;;6283401;28;20317;-83
2023/09/28 15:49:08;;;;;;;;;;;;;;;;;;6301370;28;19904;-83
2023/09/28 15:52:08;;;;;;;;;;;;;;;;;;6301311;28;19963;-82
2023/09/28 15:55:08;;;;;;;;;;;;;;;;;;6301350;28;19963;-83
2023/09/28 15:58:08;;;;;;;;;;;;;;;;;;6301874;28;19944;-82
2023/09/28 16:01:08;;;;;;;;;;;;;;;;;;6301251;28;19912;-82
2023/09/28 16:04:10;;;;;;;;;;;;;;;;;;6283634;28;19967;-81
2023/09/28 16:07:11;;;;;;;;;;;;;;;;;;6301451;28;19995;-83
2023/09/28 16:10:11;;;;;;;;;;;;;;;;;;6283161;28;19910;-83
2023/09/28 16:13:13;;;;;;;;;;;;;;;;;;6283015;28;19912;-82
2023/09/28 16:16:13;;;;;;;;;;;;;;;;;;6301875;28;19947;-83
2023/09/28 16:19:13;;;;;;;;;;;;;;;;;;6300907;28;19919;-82
2023/09/28 16:22:13;;;;;;;;;;;;;;;;;;6301178;28;19904;-83
2023/09/28 16:25:13;;;;;;;;;;;;;;;;;;6282427;28;20306;-83
2023/09/28 16:28:14;;;;;;;;;;;;;;;;;;6300377;28;19908;-83
2023/09/28 16:31:14;;;;;;;;;;;;;;;;;;6301222;28;19904;-82
2023/09/28 16:34:14;;;;;;;;;;;;;;;;;;6300852;28;19908;-82
2023/09/28 16:37:16;;;;;;;;;;;;;;;;;;6282312;28;19927;-83
2023/09/28 16:40:16;;;;;;;;;;;;;;;;;;6282254;28;19908;-83
2023/09/28 16:43:16;;;;;;;;;;;;;;;;;;6300814;28;19966;-82
2023/09/28 16:46:16;;;;;;;;;;;;;;;;;;6299856;28;19950;-82
2023/09/28 16:49:17;;;;;;;;;;;;;;;;;;6299802;28;19950;-82
2023/09/28 16:52:17;;;;;;;;;;;;;;;;;;6299929;28;19908;-83
2023/09/28 16:55:17;;;;;;;;;;;;;;;;;;6300223;28;19911;-83
2023/09/28 16:58:19;;;;;;;;;;;;;;;;;;6281577;28;20369;-82
2023/09/28 17:01:19;;;;;;;;;;;;;;;;;;6299172;28;19957;-82
2023/09/28 17:04:19;;;;;;;;;;;;;;;;;;6281512;28;20300;-82
2023/09/28 17:07:20;;;;;;;;;;;;;;;;;;6281475;28;20008;-82
2023/09/28 17:10:22;;;;;;;;;;;;;;;;;;6299335;28;19908;-82
2023/09/28 17:13:25;;;;;;;;;;;;;;;;;;6281372;28;19912;-81
2023/09/28 17:16:27;;;;;;;;;;;;;;;;;;6281191;28;19905;-82
2023/09/28 17:19:28;;;;;;;;;;;;;;;;;;6264803;28;19927;-82
2023/09/28 17:22:28;;;;;;;;;;;;;;;;;;6281218;28;20362;-81
2023/09/28 17:25:29;;;;;;;;;;;;;;;;;;6299015;28;19958;-82
2023/09/28 17:28:30;;;;;;;;;;;;;;;;;;6299501;28;19904;-82
2023/09/28 17:31:30;;;;;;;;;;;;;;;;;;6299534;28;19904;-81
2023/09/28 17:34:30;;;;;;;;;;;;;;;;;;6299548;28;19904;-81
2023/09/28 17:37:30;;;;;;;;;;;;;;;;;;6298599;28;19905;-81
2023/09/28 17:40:30;;;;;;;;;;;;;;;;;;6298642;28;19910;-81
2023/09/28 17:43:30;;;;;;;;;;;;;;;;;;6281477;28;19904;-81
2023/09/28 17:46:30;;;;;;;;;;;;;;;;;;6298895;28;20339;-82
2023/09/28 17:49:31;;;;;;;;;;;;;;;;;;6280218;28;20304;-81
2023/09/28 17:52:31;;;;;;;;;;;;;;;;;;6298354;28;19970;-82
2023/09/28 17:55:31;;;;;;;;;;;;;;;;;;6298313;28;20408;-82
2023/09/28 17:58:31;;;;;;;;;;;;;;;;;;6298850;28;20007;-82
2023/09/28 18:01:32;;;;;;;;;;;;;;;;;;6281055;28;19913;-82
2023/09/28 18:04:33;;;;;;;;;;;;;;;;;;6279855;28;19911;-81
2023/09/28 18:07:33;;;;;;;;;;;;;;;;;;6297742;28;19908;-82
2023/09/28 18:10:33;;;;;;;;;;;;;;;;;;6297893;28;19909;-81
2023/09/28 18:13:34;;;;;;;;;;;;;;;;;;6280007;28;19920;-82
2023/09/28 18:16:36;;;;;;;;;;;;;;;;;;6297852;28;19916;-81
2023/09/28 18:19:39;;;;;;;;;;;;;;;;;;6298017;28;19916;-80
2023/09/28 18:22:39;;;;;;;;;;;;;;;;;;6297752;28;19958;-81
2023/09/28 18:25:39;;;;;;;;;;;;;;;;;;6297883;28;19905;-81
2023/09/28 18:28:41;;;;;;;;;;;;;;;;;;6297469;28;19918;-81
2023/09/28 18:31:41;;;;;;;;;;;;;;;;;;6297455;28;19912;-81
2023/09/28 18:34:41;;;;;;;;;;;;;;;;;;6297369;28;20337;-82
2023/09/28 18:37:42;;;;;;;;;;;;;;;;;;6280036;28;20282;-81
2023/09/28 18:40:42;;;;;;;;;;;;;;;;;;6279454;28;19904;-81
2023/09/28 18:43:42;;;;;;;;;;;;;;;;;;6297802;28;19911;-82
2023/09/28 18:46:42;;;;;;;;;;;;;;;;;;6280025;28;20277;-82
2023/09/28 18:49:42;;;;;;;;;;;;;;;;;;6279348;28;19911;-81
2023/09/28 18:52:42;;;;;;;;;;;;;;;;;;6279987;28;19912;-82
2023/09/28 18:55:43;;;;;;;;;;;;;;;;;;6297485;28;19954;-82
2023/09/28 18:58:43;;;;;;;;;;;;;;;;;;6297619;28;20023;-82
2023/09/28 19:01:43;;;;;;;;;;;;;;;;;;6296774;28;20339;-82
2023/09/28 19:04:44;;;;;;;;;;;;;;;;;;6279446;28;20310;-82
2023/09/28 19:07:45;;;;;;;;;;;;;;;;;;6297830;28;19939;-82
2023/09/28 19:10:45;;;;;;;;;;;;;;;;;;6297531;28;19958;-82
2023/09/28 19:13:46;;;;;;;;;;;;;;;;;;6297617;28;19916;-83
2023/09/28 19:16:49;;;;;;;;;;;;;;;;;;6301927;28;19962;-81
2023/09/28 19:19:50;;;;;;;;;;;;;;;;;;6302345;28;19913;-81
2023/09/28 19:22:50;;;;;;;;;;;;;;;;;;6301612;28;19954;-81
2023/09/28 19:25:51;;;;;;;;;;;;;;;;;;6284241;28;19909;-83
2023/09/28 19:28:51;;;;;;;;;;;;;;;;;;6302042;28;20412;-82
2023/09/28 19:31:55;;;;;;;;;;;;;;;;;;6301741;28;19905;-82
2023/09/28 19:34:55;;;;;;;;;;;;;;;;;;6283582;28;19904;-81
2023/09/28 19:37:55;;;;;;;;;;;;;;;;;;6283757;28;19909;-82
2023/09/28 19:40:59;;;;;;;;;;;;;;;;;;6302620;28;20338;-82
2023/09/28 19:43:59;;;;;;;;;;;;;;;;;;6301562;28;19987;-81
2023/09/28 19:47:01;;;;;;;;;;;;;;;;;;6301623;28;19918;-80
2023/09/28 19:50:01;;;;;;;;;;;;;;;;;;6283865;28;19998;-81
2023/09/28 19:53:02;;;;;;;;;;;;;;;;;;6283393;28;19905;-82
2023/09/28 19:56:03;;;;;;;;;;;;;;;;;;6301496;28;19911;-81
2023/09/28 19:59:03;;;;;;;;;;;;;;;;;;6301233;28;19960;-81
2023/09/28 20:02:03;;;;;;;;;;;;;;;;;;6301375;28;19911;-81
2023/09/28 20:05:05;;;;;;;;;;;;;;;;;;6301370;28;19999;-81
2023/09/28 20:08:06;;;;;;;;;;;;;;;;;;6301677;28;19911;-82
2023/09/28 20:11:07;;;;;;;;;;;;;;;;;;6283400;28;19927;-81
2023/09/28 20:14:07;;;;;;;;;;;;;;;;;;6283100;28;20252;-81
2023/09/28 20:17:07;;;;;;;;;;;;;;;;;;6301404;28;19915;-81
2023/09/28 20:20:09;;;;;;;;;;;;;;;;;;6283392;28;19913;-81
2023/09/28 20:23:09;;;;;;;;;;;;;;;;;;6300905;28;19904;-81
2023/09/28 20:26:11;;;;;;;;;;;;;;;;;;6300764;28;19966;-82
2023/09/28 20:29:14;;;;;;;;;;;;;;;;;;6301233;28;19912;-82
2023/09/28 20:32:14;;;;;;;;;;;;;;;;;;6282936;28;19905;-81